createdAt,value
2024-02-24T00:02:21.280Z,55.13
2024-02-24T00:04:48.731Z,54.46
2024-02-24T00:16:09.068Z,54.43
2024-02-24T00:18:36.589Z,54.94
2024-02-24T00:21:03.856Z,54.27
2024-02-24T00:23:31.110Z,54.53
2024-02-24T00:25:58.657Z,54.78
2024-02-24T00:28:25.865Z,54.59
2024-02-24T00:30:53.015Z,54.23
2024-02-24T00:33:20.506Z,53.90
2024-02-24T00:35:47.772Z,54.09
2024-02-24T00:38:15.068Z,53.91
2024-02-24T00:40:42.581Z,54.57
2024-02-24T00:43:09.788Z,54.28
2024-02-24T00:45:36.970Z,54.08
2024-02-24T00:48:04.697Z,53.03
2024-02-24T00:50:32.778Z,53.06
2024-02-24T00:53:00.280Z,55.29
2024-02-24T00:55:28.022Z,54.05
2024-02-24T00:57:56.637Z,54.37
2024-02-24T01:00:23.944Z,54.10
2024-02-24T01:02:51.524Z,53.56
2024-02-24T01:05:20.338Z,53.94
2024-02-24T01:07:47.692Z,54.59
2024-02-24T01:10:15.166Z,53.73
2024-02-24T01:12:42.551Z,53.93
2024-02-24T01:15:09.955Z,53.96
2024-02-24T01:17:37.551Z,54.17
2024-02-24T01:20:04.895Z,53.97
2024-02-24T01:22:32.228Z,54.09
2024-02-24T01:24:59.764Z,53.67
2024-02-24T01:27:26.932Z,54.67
2024-02-24T01:29:54.197Z,53.61
2024-02-24T01:32:21.692Z,52.85
2024-02-24T01:34:48.944Z,53.08
2024-02-24T01:37:16.107Z,54.42
2024-02-24T01:39:43.671Z,54.57
2024-02-24T01:42:10.889Z,54.38
2024-02-24T01:44:38.278Z,53.81
2024-02-24T01:47:06.031Z,53.07
2024-02-24T01:49:33.311Z,54.48
2024-02-24T01:52:01.113Z,53.83
2024-02-24T01:54:28.873Z,53.77
2024-02-24T01:56:56.080Z,53.73
2024-02-24T01:59:24.451Z,56.04
2024-02-24T02:01:51.627Z,55.05
2024-02-24T02:04:19.177Z,55.25
2024-02-24T02:06:46.568Z,54.49
2024-02-24T02:09:13.834Z,53.32
2024-02-24T02:11:48.194Z,54.05
2024-02-24T02:14:23.724Z,55.07
2024-02-24T02:16:51.201Z,55.75
2024-02-24T02:19:18.489Z,55.94
2024-02-24T02:21:45.683Z,55.89
2024-02-24T02:24:13.144Z,57.41
2024-02-24T02:26:40.462Z,55.62
2024-02-24T02:29:07.869Z,59.17
2024-02-24T02:31:36.351Z,59.22
2024-02-24T02:34:03.622Z,57.65
2024-02-24T02:36:30.794Z,58.28
2024-02-24T02:38:58.289Z,58.76
2024-02-24T02:41:25.526Z,58.84
2024-02-24T02:43:52.741Z,59.19
2024-02-24T02:46:20.203Z,58.67
2024-02-24T02:48:47.479Z,60.32
2024-02-24T02:51:15.071Z,60.58
2024-02-24T02:53:42.651Z,57.77
2024-02-24T02:56:14.591Z,60.88
2024-02-24T02:58:41.800Z,61.11
2024-02-24T03:01:12.460Z,61.95
2024-02-24T03:03:39.743Z,60.09
2024-02-24T03:06:08.811Z,61.51
2024-02-24T03:08:36.293Z,59.87
2024-02-24T03:11:03.596Z,60.78
2024-02-24T03:13:30.867Z,62.37
2024-02-24T03:15:58.332Z,61.35
2024-02-24T03:18:25.601Z,62.63
2024-02-24T03:20:52.878Z,63.13
2024-02-24T03:23:20.363Z,61.65
2024-02-24T03:25:47.558Z,61.50
2024-02-24T03:28:15.918Z,61.85
2024-02-24T03:30:44.349Z,62.70
2024-02-24T03:33:13.753Z,63.42
2024-02-24T03:35:41.187Z,64.85
2024-02-24T03:38:08.680Z,64.78
2024-02-24T03:40:35.892Z,65.78
2024-02-24T03:43:03.143Z,66.37
2024-02-24T03:45:34.828Z,66.89
2024-02-24T03:48:02.095Z,67.57
2024-02-24T03:50:29.400Z,66.93
2024-02-24T03:52:57.011Z,66.74
2024-02-24T03:55:24.162Z,66.41
2024-02-24T03:57:51.527Z,67.20
2024-02-24T04:00:19.071Z,66.62
2024-02-24T04:02:46.536Z,66.67
2024-02-24T04:05:13.867Z,66.89
2024-02-24T04:07:41.100Z,66.15
2024-02-24T04:10:08.648Z,66.43
2024-02-24T04:12:35.841Z,66.58
2024-02-24T04:15:03.137Z,66.19
2024-02-24T04:17:31.554Z,67.47
2024-02-24T04:19:58.797Z,66.72
2024-02-24T04:22:25.966Z,67.03
2024-02-24T04:24:53.459Z,66.46
2024-02-24T04:27:20.713Z,66.89
2024-02-24T04:29:48.012Z,66.40
2024-02-24T04:32:15.615Z,67.68
2024-02-24T04:34:42.925Z,66.79
2024-02-24T04:37:10.164Z,66.53
2024-02-24T04:39:37.629Z,66.61
2024-02-24T04:42:04.821Z,67.26
2024-02-24T04:44:32.016Z,66.89
2024-02-24T04:46:59.542Z,66.42
2024-02-24T04:49:26.760Z,66.66
2024-02-24T04:51:54.050Z,66.29
2024-02-24T04:54:22.565Z,66.63
2024-02-24T04:56:49.772Z,66.26
2024-02-24T04:59:18.222Z,66.37
2024-02-24T05:01:45.676Z,66.21
2024-02-24T05:04:12.894Z,67.36
2024-02-24T05:06:40.114Z,66.61
2024-02-24T05:09:09.862Z,66.62
2024-02-24T05:11:37.204Z,66.07
2024-02-24T05:14:04.614Z,65.40
2024-02-24T05:16:34.220Z,64.82
2024-02-24T05:19:01.507Z,65.37
2024-02-24T05:21:28.719Z,65.37
2024-02-24T05:23:56.330Z,66.21
2024-02-24T05:26:26.760Z,66.00
2024-02-24T05:28:53.965Z,65.27
2024-02-24T05:31:21.507Z,65.97
2024-02-24T05:33:51.537Z,64.96
2024-02-24T05:36:19.409Z,64.64
2024-02-24T05:38:46.904Z,65.01
2024-02-24T05:41:14.744Z,65.20
2024-02-24T05:43:41.978Z,64.62
2024-02-24T05:46:09.424Z,65.07
2024-02-24T05:48:37.040Z,65.01
2024-02-24T05:51:05.297Z,64.45
2024-02-24T05:53:33.277Z,64.26
2024-02-24T05:56:00.546Z,65.34
2024-02-24T05:58:30.170Z,65.70
2024-02-24T06:00:58.901Z,65.27
2024-02-24T06:03:28.620Z,64.91
2024-02-24T06:05:55.845Z,64.70
2024-02-24T06:08:23.190Z,65.42
2024-02-24T06:10:50.756Z,64.83
2024-02-24T06:13:17.988Z,64.38
2024-02-24T06:15:45.145Z,64.31
2024-02-24T06:18:12.795Z,64.18
2024-02-24T06:20:40.086Z,63.82
2024-02-24T06:23:07.584Z,64.26
2024-02-24T06:25:35.128Z,64.12
2024-02-24T06:28:02.635Z,64.29
2024-02-24T06:30:29.814Z,65.80
2024-02-24T06:32:57.301Z,64.96
2024-02-24T06:35:24.577Z,65.05
2024-02-24T06:37:51.929Z,65.69
2024-02-24T06:40:29.100Z,66.11
2024-02-24T06:43:00.641Z,65.74
2024-02-24T06:45:28.141Z,65.19
2024-02-24T06:47:55.402Z,64.65
2024-02-24T06:50:22.730Z,64.21
2024-02-24T06:52:50.219Z,63.98
2024-02-24T06:55:17.402Z,64.66
2024-02-24T06:57:45.408Z,64.89
2024-02-24T07:00:15.889Z,64.49
2024-02-24T07:02:43.131Z,64.33
2024-02-24T07:05:10.439Z,65.50
2024-02-24T07:07:38.433Z,65.06
2024-02-24T07:10:06.082Z,65.56
2024-02-24T07:12:33.374Z,65.10
2024-02-24T07:15:00.888Z,64.76
2024-02-24T07:17:28.475Z,64.01
2024-02-24T07:19:55.794Z,63.83
2024-02-24T07:22:23.364Z,65.16
2024-02-24T07:24:50.622Z,64.87
2024-02-24T07:27:17.842Z,65.34
2024-02-24T07:29:45.407Z,64.98
2024-02-24T07:32:12.714Z,65.76
2024-02-24T07:34:40.084Z,65.72
2024-02-24T07:37:07.592Z,65.49
2024-02-24T07:39:37.029Z,66.14
2024-02-24T07:42:04.315Z,66.41
2024-02-24T07:44:32.437Z,65.80
2024-02-24T07:46:59.704Z,64.99
2024-02-24T07:49:26.964Z,65.30
2024-02-24T07:51:54.809Z,64.01
2024-02-24T07:54:21.960Z,63.24
2024-02-24T07:56:49.205Z,63.04
2024-02-24T07:59:16.731Z,62.67
2024-02-24T08:01:43.927Z,62.60
2024-02-24T08:04:11.412Z,62.79
2024-02-24T08:06:38.695Z,62.69
2024-02-24T08:09:05.992Z,62.31
2024-02-24T08:11:41.479Z,61.75
2024-02-24T08:14:10.302Z,60.88
2024-02-24T08:16:39.659Z,61.82
2024-02-24T08:19:08.113Z,60.94
2024-02-24T08:21:38.532Z,60.64
2024-02-24T08:24:09.216Z,60.29
2024-02-24T08:26:43.434Z,59.82
2024-02-24T08:29:11.615Z,59.26
2024-02-24T08:31:39.564Z,58.42
2024-02-24T08:34:06.969Z,59.34
2024-02-24T08:36:34.713Z,58.63
2024-02-24T08:39:02.199Z,58.19
2024-02-24T08:41:33.083Z,58.01
2024-02-24T08:44:02.145Z,57.61
2024-02-24T08:46:29.861Z,58.45
2024-02-24T08:49:02.110Z,57.46
2024-02-24T08:51:29.772Z,57.26
2024-02-24T08:53:57.064Z,55.67
2024-02-24T08:56:24.576Z,56.28
2024-02-24T08:58:52.035Z,55.21
2024-02-24T09:01:22.294Z,54.53
2024-02-24T09:03:49.617Z,54.97
2024-02-24T09:06:17.395Z,54.13
2024-02-24T09:08:44.801Z,53.28
2024-02-24T09:11:12.736Z,54.33
2024-02-24T09:13:40.331Z,54.83
2024-02-24T09:16:07.836Z,52.90
2024-02-24T09:18:35.205Z,53.66
2024-02-24T09:21:02.806Z,52.64
2024-02-24T09:23:29.971Z,53.77
2024-02-24T09:25:57.380Z,54.20
2024-02-24T09:28:24.802Z,53.12
2024-02-24T09:30:52.739Z,52.57
2024-02-24T09:33:20.146Z,53.01
2024-02-24T09:35:47.857Z,52.98
2024-02-24T09:38:15.121Z,53.64
2024-02-24T09:40:42.329Z,53.62
2024-02-24T09:43:09.809Z,53.49
2024-02-24T09:45:42.592Z,52.41
2024-02-24T09:48:11.857Z,53.02
2024-02-24T09:50:39.726Z,52.55
2024-02-24T09:53:07.096Z,52.28
2024-02-24T09:55:35.849Z,52.38
2024-02-24T09:58:04.458Z,52.39
2024-02-24T10:00:31.616Z,52.44
2024-02-24T10:02:59.256Z,52.39
2024-02-24T10:05:27.130Z,52.61
2024-02-24T10:07:56.699Z,53.77
2024-02-24T10:10:27.493Z,53.17
2024-02-24T10:12:58.367Z,52.34
2024-02-24T10:15:26.331Z,52.47
2024-02-24T10:18:00.123Z,52.25
2024-02-24T10:20:28.550Z,52.89
2024-02-24T10:22:55.946Z,51.28
2024-02-24T10:25:23.344Z,51.28
2024-02-24T10:27:50.778Z,50.89
2024-02-24T10:30:20.962Z,50.87
2024-02-24T10:32:52.114Z,51.52
2024-02-24T10:35:19.403Z,51.72
2024-02-24T10:38:03.317Z,52.01
2024-02-24T10:40:34.196Z,51.15
2024-02-24T10:43:01.573Z,50.91
2024-02-24T10:45:29.702Z,50.64
2024-02-24T10:47:57.529Z,49.06
2024-02-24T10:50:24.791Z,49.30
2024-02-24T10:52:52.038Z,49.13
2024-02-24T10:55:20.046Z,47.93
2024-02-24T10:57:49.679Z,46.45
2024-02-24T11:00:24.526Z,48.16
2024-02-24T11:02:52.578Z,47.90
2024-02-24T11:05:20.005Z,47.21
2024-02-24T11:07:47.284Z,46.16
2024-02-24T11:10:23.954Z,45.99
2024-02-24T11:12:54.099Z,45.54
2024-02-24T11:15:25.026Z,44.94
2024-02-24T11:17:54.036Z,46.71
2024-02-24T11:20:40.974Z,45.74
2024-02-24T11:23:24.894Z,45.04
2024-02-24T11:26:11.184Z,45.31
2024-02-24T11:28:38.503Z,45.45
2024-02-24T11:31:06.067Z,44.82
2024-02-24T11:33:38.680Z,45.17
2024-02-24T11:36:06.870Z,44.57
2024-02-24T11:38:34.515Z,44.32
2024-02-24T11:41:05.161Z,44.99
2024-02-24T11:43:32.834Z,45.13
2024-02-24T11:46:00.195Z,43.29
2024-02-24T11:48:27.535Z,42.28
2024-02-24T11:50:55.177Z,43.63
2024-02-24T11:53:22.689Z,44.43
2024-02-24T11:55:50.267Z,44.08
2024-02-24T11:58:18.927Z,44.83
2024-02-24T12:00:46.732Z,44.24
2024-02-24T12:03:15.289Z,44.78
2024-02-24T12:05:43.040Z,44.28
2024-02-24T12:08:11.794Z,44.30
2024-02-24T12:10:39.970Z,43.65
2024-02-24T12:13:08.183Z,43.83
2024-02-24T12:15:35.939Z,44.86
2024-02-24T12:18:07.345Z,42.36
2024-02-24T12:20:38.408Z,44.22
2024-02-24T12:23:06.377Z,43.80
2024-02-24T12:25:33.751Z,43.23
2024-02-24T12:28:01.172Z,42.36
2024-02-24T12:30:28.745Z,42.21
2024-02-24T12:32:56.854Z,42.73
2024-02-24T12:35:24.289Z,43.07
2024-02-24T12:37:55.313Z,43.27
2024-02-24T12:40:27.743Z,41.94
2024-02-24T12:42:55.564Z,40.25
2024-02-24T12:45:22.866Z,39.66
2024-02-24T12:47:53.173Z,39.72
2024-02-24T12:50:21.515Z,39.35
2024-02-24T12:52:48.930Z,40.17
2024-02-24T12:55:16.627Z,38.57
2024-02-24T12:57:44.242Z,38.89
2024-02-24T13:00:11.700Z,39.33
2024-02-24T13:02:39.130Z,38.97
2024-02-24T13:05:06.831Z,39.67
2024-02-24T13:07:34.107Z,39.36
2024-02-24T13:10:01.519Z,39.15
2024-02-24T13:12:29.195Z,38.49
2024-02-24T13:14:56.650Z,39.05
2024-02-24T13:17:24.132Z,38.97
2024-02-24T13:19:52.819Z,40.18
2024-02-24T13:22:20.740Z,39.07
2024-02-24T13:24:49.516Z,39.08
2024-02-24T13:27:17.006Z,39.66
2024-02-24T13:29:44.330Z,40.29
2024-02-24T13:32:11.579Z,40.21
2024-02-24T13:34:39.094Z,40.82
2024-02-24T13:37:08.593Z,40.01
2024-02-24T13:39:35.941Z,39.52
2024-02-24T13:42:03.978Z,39.33
2024-02-24T13:44:31.178Z,39.68
2024-02-24T13:46:58.709Z,39.86
2024-02-24T13:49:26.270Z,39.94
2024-02-24T13:51:53.598Z,40.16
2024-02-24T13:54:20.763Z,40.07
2024-02-24T13:56:48.538Z,41.19
2024-02-24T13:59:15.769Z,39.90
2024-02-24T14:01:42.942Z,40.22
2024-02-24T14:04:10.380Z,40.63
2024-02-24T14:06:37.922Z,41.07
2024-02-24T14:09:07.897Z,40.31
2024-02-24T14:11:35.966Z,40.65
2024-02-24T14:14:03.506Z,40.40
2024-02-24T14:16:31.058Z,40.53
2024-02-24T14:18:58.688Z,40.40
2024-02-24T14:21:26.012Z,42.36
2024-02-24T14:23:53.551Z,40.96
2024-02-24T14:26:21.164Z,40.59
2024-02-24T14:28:59.462Z,40.49
2024-02-24T14:31:29.827Z,40.84
2024-02-24T14:33:58.336Z,41.67
2024-02-24T14:36:25.677Z,40.10
2024-02-24T14:38:53.451Z,40.42
2024-02-24T14:41:20.828Z,40.18
2024-02-24T14:43:48.109Z,40.21
2024-02-24T14:46:15.590Z,40.69
2024-02-24T14:48:44.016Z,41.28
2024-02-24T14:51:11.283Z,41.02
2024-02-24T14:53:39.047Z,41.86
2024-02-24T14:56:06.525Z,41.94
2024-02-24T14:58:33.847Z,41.66
2024-02-24T15:01:01.543Z,42.81
2024-02-24T15:03:28.820Z,43.29
2024-02-24T15:05:56.641Z,42.84
2024-02-24T15:08:24.250Z,42.14
2024-02-24T15:10:51.631Z,42.12
2024-02-24T15:13:23.239Z,44.90
2024-02-24T15:15:55.096Z,43.62
2024-02-24T15:18:22.407Z,48.20
2024-02-24T15:20:49.891Z,47.06
2024-02-24T15:23:17.534Z,48.21
2024-02-24T15:25:47.508Z,49.68
2024-02-24T15:28:15.320Z,48.86
2024-02-24T15:30:43.335Z,48.90
2024-02-24T15:33:11.157Z,49.42
2024-02-24T15:35:39.710Z,50.02
2024-02-24T15:38:07.296Z,49.18
2024-02-24T15:40:37.763Z,50.00
2024-02-24T15:43:07.082Z,49.57
2024-02-24T15:45:34.319Z,49.28
2024-02-24T15:48:02.033Z,49.15
2024-02-24T15:50:29.659Z,49.37
2024-02-24T15:52:56.900Z,49.69
2024-02-24T15:55:24.246Z,49.61
2024-02-24T15:57:52.723Z,49.77
2024-02-24T16:00:20.773Z,50.10
2024-02-24T16:02:48.406Z,50.00
2024-02-24T16:05:18.039Z,49.89
2024-02-24T16:07:45.223Z,49.82
2024-02-24T16:10:12.690Z,48.51
2024-02-24T16:12:39.871Z,48.95
2024-02-24T16:15:07.400Z,49.30
2024-02-24T16:17:35.616Z,48.38
2024-02-24T16:20:03.166Z,49.46
2024-02-24T16:22:30.429Z,50.04
2024-02-24T16:24:57.905Z,50.47
2024-02-24T16:27:25.898Z,51.34
2024-02-24T16:29:53.872Z,51.37
2024-02-24T16:32:22.435Z,51.75
2024-02-24T16:34:50.524Z,53.26
2024-02-24T16:37:18.936Z,53.02
2024-02-24T16:39:46.758Z,53.00
2024-02-24T16:42:13.964Z,53.87
2024-02-24T16:44:42.275Z,53.92
2024-02-24T16:47:09.744Z,54.60
2024-02-24T16:49:37.024Z,54.98
2024-02-24T16:52:04.436Z,55.42
2024-02-24T16:54:31.896Z,54.96
2024-02-24T16:56:59.190Z,54.77
2024-02-24T16:59:26.404Z,54.70
2024-02-24T17:01:53.888Z,55.16
2024-02-24T17:04:21.191Z,54.91
2024-02-24T17:06:48.409Z,54.99
2024-02-24T17:09:16.128Z,55.47
2024-02-24T17:11:43.492Z,56.01
2024-02-24T17:14:10.780Z,56.06
2024-02-24T17:16:38.200Z,55.42
2024-02-24T17:19:05.506Z,55.77
2024-02-24T17:21:32.745Z,56.13
2024-02-24T17:24:00.235Z,55.65
2024-02-24T17:26:27.714Z,55.99
2024-02-24T17:28:54.944Z,56.06
2024-02-24T17:31:22.390Z,56.59
2024-02-24T17:33:49.744Z,56.72
2024-02-24T17:36:17.346Z,56.54
2024-02-24T17:38:45.917Z,56.74
2024-02-24T17:41:13.158Z,57.10
2024-02-24T17:43:40.338Z,56.93
2024-02-24T17:46:07.812Z,57.17
2024-02-24T17:48:36.732Z,57.23
2024-02-24T17:51:04.625Z,56.71
2024-02-24T17:53:32.240Z,57.70
2024-02-24T17:55:59.861Z,57.70
2024-02-24T17:58:36.244Z,58.03
2024-02-24T18:01:11.976Z,58.04
2024-02-24T18:03:39.740Z,57.79
2024-02-24T18:06:07.134Z,58.60
2024-02-24T18:08:34.395Z,58.55
2024-02-24T18:11:01.919Z,58.44
2024-02-24T18:13:29.088Z,58.29
2024-02-24T18:15:56.467Z,59.19
2024-02-24T18:18:24.038Z,58.73
2024-02-24T18:20:51.622Z,58.69
2024-02-24T18:23:18.909Z,59.21
2024-02-24T18:25:47.823Z,58.81
2024-02-24T18:28:15.186Z,59.33
2024-02-24T18:30:42.927Z,59.59
2024-02-24T18:33:11.271Z,59.34
2024-02-24T18:35:38.712Z,58.62
2024-02-24T18:38:05.998Z,58.90
2024-02-24T18:40:33.685Z,58.89
2024-02-24T18:43:01.341Z,58.49
2024-02-24T18:45:28.748Z,58.62
2024-02-24T18:47:57.120Z,59.04
2024-02-24T18:50:25.233Z,59.14
2024-02-24T18:52:53.366Z,58.69
2024-02-24T18:55:21.823Z,58.69
2024-02-24T18:57:49.222Z,58.67
2024-02-24T19:00:17.308Z,59.17
2024-02-24T19:02:45.885Z,58.64
2024-02-24T19:05:13.939Z,58.50
2024-02-24T19:07:44.071Z,58.67
2024-02-24T19:10:12.516Z,58.29
2024-02-24T19:12:40.277Z,58.32
2024-02-24T19:15:09.552Z,58.53
2024-02-24T19:17:38.265Z,58.55
2024-02-24T19:20:07.341Z,58.52
2024-02-24T19:22:35.805Z,58.90
2024-02-24T19:25:04.964Z,58.53
2024-02-24T19:27:33.421Z,58.54
2024-02-24T19:30:02.263Z,58.37
2024-02-24T19:32:31.364Z,58.08
2024-02-24T19:35:00.062Z,58.40
2024-02-24T19:37:28.608Z,58.97
2024-02-24T19:39:57.686Z,59.04
2024-02-24T19:42:27.669Z,58.86
2024-02-24T19:44:57.199Z,58.95
2024-02-24T19:47:25.985Z,58.77
2024-02-24T19:49:54.677Z,58.97
2024-02-24T19:52:24.275Z,58.72
2024-02-24T19:54:52.743Z,59.50
2024-02-24T19:57:22.649Z,59.94
2024-02-24T19:59:50.783Z,59.73
2024-02-24T20:02:19.324Z,60.14
2024-02-24T20:04:47.360Z,60.08
2024-02-24T20:07:15.557Z,60.06
2024-02-24T20:09:43.746Z,59.89
2024-02-24T20:12:13.791Z,60.06
2024-02-24T20:14:41.927Z,59.77
2024-02-24T20:17:11.315Z,59.88
2024-02-24T20:19:42.096Z,59.55
2024-02-24T20:22:10.118Z,59.39
2024-02-24T20:24:38.632Z,58.98
2024-02-24T20:27:06.518Z,59.08
2024-02-24T20:29:34.842Z,59.42
2024-02-24T20:32:02.737Z,59.72
2024-02-24T20:34:30.669Z,59.80
2024-02-24T20:36:58.304Z,59.62
2024-02-24T20:39:25.688Z,59.33
2024-02-24T20:41:54.072Z,59.50
2024-02-24T20:44:22.172Z,59.50
2024-02-24T20:46:50.823Z,59.94
2024-02-24T20:49:22.690Z,60.37
2024-02-24T20:51:58.444Z,59.91
2024-02-24T20:54:29.938Z,59.90
2024-02-24T20:56:57.829Z,59.72
2024-02-24T20:59:25.321Z,59.50
2024-02-24T21:01:52.859Z,59.61
2024-02-24T21:04:20.287Z,59.55
2024-02-24T21:06:47.749Z,59.81
2024-02-24T21:09:15.248Z,60.15
2024-02-24T21:11:42.675Z,59.65
2024-02-24T21:14:12.065Z,59.91
2024-02-24T21:16:39.836Z,60.04
2024-02-24T21:19:08.681Z,61.07
2024-02-24T21:21:36.097Z,60.99
2024-02-24T21:24:03.220Z,60.84
2024-02-24T21:26:30.603Z,60.58
2024-02-24T21:28:58.024Z,60.38
2024-02-24T21:31:25.363Z,60.54
2024-02-24T21:33:52.909Z,60.55
2024-02-24T21:36:20.733Z,60.47
2024-02-24T21:38:48.113Z,60.29
2024-02-24T21:41:18.666Z,60.38
2024-02-24T21:43:46.074Z,60.26
2024-02-24T21:46:13.165Z,60.44
2024-02-24T21:48:40.659Z,60.79
2024-02-24T21:51:10.811Z,60.80
2024-02-24T21:53:37.907Z,61.11
2024-02-24T21:56:05.156Z,61.31
2024-02-24T21:58:32.298Z,60.81
2024-02-24T22:00:59.426Z,60.94
2024-02-24T22:03:27.646Z,60.52
2024-02-24T22:05:54.976Z,60.66
2024-02-24T22:08:22.328Z,60.81
2024-02-24T22:10:49.852Z,60.90
2024-02-24T22:13:17.113Z,61.30
2024-02-24T22:15:44.393Z,60.97
2024-02-24T22:18:11.981Z,60.97
2024-02-24T22:20:39.297Z,60.95
2024-02-24T22:23:06.504Z,61.00
2024-02-24T22:25:33.952Z,60.88
2024-02-24T22:28:01.358Z,61.08
2024-02-24T22:30:28.701Z,61.26
2024-02-24T22:32:57.442Z,61.50
2024-02-24T22:35:24.872Z,61.15
2024-02-24T22:37:52.103Z,60.78
2024-02-24T22:40:19.732Z,60.85
2024-02-24T22:42:46.998Z,61.00
2024-02-24T22:45:14.232Z,61.24
2024-02-24T22:47:44.278Z,60.80
2024-02-24T22:50:13.237Z,61.14
2024-02-24T22:52:40.402Z,61.33
2024-02-24T22:55:09.766Z,61.35
2024-02-24T22:57:37.036Z,61.04
2024-02-24T23:00:05.695Z,60.94
2024-02-24T23:02:33.259Z,60.87
2024-02-24T23:05:00.495Z,60.65
2024-02-24T23:07:27.800Z,60.71
2024-02-24T23:09:56.280Z,60.95
2024-02-24T23:12:23.489Z,60.87
2024-02-24T23:14:50.744Z,60.75
2024-02-24T23:17:18.284Z,61.07
2024-02-24T23:19:45.644Z,61.00
2024-02-24T23:22:12.839Z,60.85
2024-02-24T23:24:40.319Z,61.04
2024-02-24T23:27:07.550Z,62.05
2024-02-24T23:29:34.980Z,61.19
2024-02-24T23:32:02.569Z,61.46
2024-02-24T23:34:29.799Z,61.06
2024-02-24T23:36:56.991Z,61.23
2024-02-24T23:39:24.526Z,60.97
2024-02-24T23:41:54.279Z,61.55
2024-02-24T23:44:22.061Z,61.11
2024-02-24T23:46:49.665Z,61.06
2024-02-24T23:49:17.321Z,60.42
2024-02-24T23:51:44.663Z,60.53
2024-02-24T23:54:12.105Z,60.48
2024-02-24T23:56:39.977Z,60.58
2024-02-24T23:59:08.787Z,60.58
